Time;durP1;ratioP1;P1;durP2;ratioP2;P2;SDS_P1;SDS_P2;PMS_P1;PMS_P2;Temp;Humidity;BMP_temperature;BMP_pressure;BME280_temperature;BME280_humidity;BME280_pressure;Samples;Min_cycle;Max_cycle;Signal;HPM_P1;HPM_P2
2022/03/25 00:00:14;;;;;;;;;;;8.50;69.00;;;8.04;45.41;98119.44;5031833;28;19931;-46
2022/03/25 00:02:41;;;;;;;;;;;8.50;69.00;;;7.97;45.73;98110.78;5034867;28;19932;-48
2022/03/25 00:05:07;;;;;;;;;;;8.40;69.10;;;7.94;45.48;98123.94;5035534;28;19928;-47
2022/03/25 00:07:34;;;;;;;;;;;8.40;69.10;;;7.83;47.01;98116.22;5034162;28;19925;-48
2022/03/25 00:10:00;;;;;;;;;;;8.30;70.70;;;7.71;47.24;98126.88;5037777;28;19917;-47
2022/03/25 00:12:26;;;;;;;;;;;8.10;71.20;;;7.58;48.05;98126.19;5035995;28;20312;-45
2022/03/25 00:14:52;;;;;;;;;;;8.00;72.00;;;7.52;47.60;98125.41;5036648;28;19917;-47
2022/03/25 00:17:17;;;;;;;;;;;7.90;71.90;;;7.51;46.88;98123.69;5038454;28;19925;-48
2022/03/25 00:19:43;;;;;;;;;;;7.90;71.00;;;7.48;46.71;98115.84;5036773;28;19920;-47
2022/03/25 00:22:09;;;;;;;;;;;7.80;70.80;;;7.43;46.67;98119.41;5036454;28;19925;-48
2022/03/25 00:24:34;;;;;;;;;;;7.90;70.80;;;7.43;46.83;98116.78;5034367;28;19917;-45
2022/03/25 00:27:00;;;;;;;;;;;7.80;70.90;;;7.41;47.34;98117.66;5036094;28;19931;-47
2022/03/25 00:29:25;;;;;;;;;;;7.90;71.40;;;7.38;47.72;98113.34;5034856;28;19917;-47
2022/03/25 00:31:51;;;;;;;;;;;7.80;71.90;;;7.32;48.38;98113.44;5035917;28;19960;-45
2022/03/25 00:34:18;;;;;;;;;;;7.80;72.60;;;7.31;48.33;98116.06;5035336;28;20444;-46
2022/03/25 00:36:44;;;;;;;;;;;7.70;72.70;;;7.31;48.52;98111.69;5034375;28;19997;-47
2022/03/25 00:39:09;;;;;;;;;;;7.70;73.00;;;7.32;48.32;98115.16;5040106;28;19916;-47
2022/03/25 00:41:36;;;;;;;;;;;7.70;72.70;;;7.31;48.07;98102.94;5032532;28;19917;-47
2022/03/25 00:44:06;;;;;;;;;;;7.80;72.50;;;7.38;47.82;98112.47;5036498;28;19925;-46
2022/03/25 00:46:33;;;;;;;;;;;7.80;72.30;;;7.42;47.70;98103.66;5034356;28;19925;-47
2022/03/25 00:48:59;;;;;;;;;;;7.80;72.20;;;7.43;47.28;98094.91;5036809;28;19916;-46
2022/03/25 00:51:25;;;;;;;;;;;7.90;71.80;;;7.32;47.26;98076.69;5034106;28;19921;-46
2022/03/25 00:53:51;;;;;;;;;;;7.90;71.70;;;7.51;47.17;98100.91;5039092;28;20320;-46
2022/03/25 00:56:17;;;;;;;;;;;7.90;71.40;;;7.57;47.33;98092.09;5040264;28;19940;-48
2022/03/25 00:58:42;;;;;;;;;;;8.00;71.60;;;7.51;48.53;98095.66;5037538;28;20280;-46
2022/03/25 01:01:08;;;;;;;;;;;7.90;72.60;;;7.41;48.50;98094.03;5037880;28;19921;-47
2022/03/25 01:03:35;;;;;;;;;;;7.90;73.00;;;7.43;48.20;98092.28;5038580;28;19921;-45
2022/03/25 01:06:00;;;;;;;;;;;7.90;72.30;;;7.39;48.56;98080.09;5040535;28;20393;-47
2022/03/25 01:08:27;;;;;;;;;;;7.90;73.10;;;7.36;48.74;98091.50;5038179;28;19978;-48
2022/03/25 01:10:53;;;;;;;;;;;7.80;73.20;;;7.23;49.68;98072.44;5039966;28;19956;-46
2022/03/25 01:13:19;;;;;;;;;;;7.80;74.40;;;7.23;49.42;98085.56;5035670;28;20469;-47
2022/03/25 01:15:44;;;;;;;;;;;7.70;74.20;;;7.15;49.55;98089.16;5036871;28;20023;-46
2022/03/25 01:18:10;;;;;;;;;;;7.60;74.10;;;7.10;49.86;98085.72;5038309;28;19998;-48
2022/03/25 01:20:36;;;;;;;;;;;7.60;74.40;;;7.13;49.37;98085.69;5037450;28;19928;-47
2022/03/25 01:23:02;;;;;;;;;;;7.60;74.30;;;7.05;49.40;98070.00;5040606;28;20109;-46
2022/03/25 01:25:28;;;;;;;;;;;7.60;74.20;;;7.12;49.94;98079.53;5039112;28;19917;-48
2022/03/25 01:27:54;;;;;;;;;;;7.50;74.60;;;7.08;50.23;98083.09;5037449;28;19924;-47
2022/03/25 01:30:19;;;;;;;;;;;7.50;75.10;;;7.08;49.67;98083.97;5038005;28;19925;-47
2022/03/25 01:32:45;;;;;;;;;;;7.50;74.60;;;7.07;50.26;98090.09;5038809;28;19925;-46
2022/03/25 01:35:11;;;;;;;;;;;7.50;74.90;;;6.83;51.75;98072.03;5036946;28;19963;-47
2022/03/25 01:37:37;;;;;;;;;;;7.40;76.70;;;6.86;52.81;98088.59;5038709;28;19932;-46
2022/03/25 01:40:09;;;;;;;;;;;7.30;77.90;;;6.67;54.29;98076.56;5039303;28;19932;-48
2022/03/25 01:42:37;;;;;;;;;;;7.20;79.00;;;6.59;54.78;98089.75;5039846;28;19932;-46
2022/03/25 01:45:04;;;;;;;;;;;7.20;79.50;;;6.50;55.49;98084.59;5039685;28;20011;-45
2022/03/25 01:47:31;;;;;;;;;;;7.00;80.00;;;6.39;55.43;98084.72;5039144;28;19938;-45
2022/03/25 01:49:58;;;;;;;;;;;6.90;80.10;;;6.33;55.68;98082.13;5037739;28;19928;-43
2022/03/25 01:52:24;;;;;;;;;;;6.90;80.40;;;6.30;55.78;98083.03;5038570;28;20002;-47
2022/03/25 01:54:49;;;;;;;;;;;6.80;80.50;;;6.19;55.45;98074.41;5037640;28;19927;-47
2022/03/25 01:57:15;;;;;;;;;;;6.70;80.20;;;6.20;55.50;98085.75;5036669;28;19939;-46
2022/03/25 01:59:41;;;;;;;;;;;6.70;80.40;;;6.14;56.17;98088.41;5037798;28;20415;-44
2022/03/25 02:02:08;;;;;;;;;;;6.60;80.90;;;6.05;56.96;98086.75;5040022;28;19962;-45
2022/03/25 02:04:35;;;;;;;;;;;6.60;81.70;;;5.97;56.79;98091.16;5037544;28;20023;-46
2022/03/25 02:07:02;;;;;;;;;;;6.50;81.50;;;5.87;56.83;98088.59;5035311;28;20016;-45
2022/03/25 02:09:28;;;;;;;;;;;6.40;82.60;;;5.79;56.20;98084.28;5039004;28;19921;-45
2022/03/25 02:11:55;;;;;;;;;;;6.30;80.80;;;5.76;55.54;98090.41;5038646;28;19929;-45
2022/03/25 02:14:22;;;;;;;;;;;6.20;80.50;;;5.71;55.49;98089.59;5036254;28;19921;-47
2022/03/25 02:16:48;;;;;;;;;;;6.20;80.50;;;5.71;55.66;98090.44;5037212;28;19920;-46
2022/03/25 02:19:18;;;;;;;;;;;6.20;80.70;;;5.63;56.25;98096.59;5038589;28;20002;-45
2022/03/25 02:21:45;;;;;;;;;;;6.10;81.10;;;5.58;56.71;98093.13;5036809;28;19921;-46
2022/03/25 02:24:12;;;;;;;;;;;6.10;81.70;;;5.56;56.81;98095.75;5039511;28;20004;-47
2022/03/25 02:26:38;;;;;;;;;;;6.00;81.90;;;5.59;55.75;98097.50;5031173;28;19923;-49
2022/03/25 02:29:05;;;;;;;;;;;6.10;81.10;;;5.59;56.07;98097.50;5035355;28;19924;-49
2022/03/25 02:31:31;;;;;;;;;;;6.00;81.20;;;5.58;55.94;98099.25;5035766;28;20356;-46
2022/03/25 02:33:59;;;;;;;;;;;6.10;81.30;;;5.62;55.61;98090.50;5037625;28;19917;-45
2022/03/25 02:36:25;;;;;;;;;;;6.10;81.00;;;5.67;55.45;98091.34;5035740;28;20297;-47
2022/03/25 02:38:51;;;;;;;;;;;6.10;81.00;;;5.71;54.76;98092.19;5036551;28;20887;-47
2022/03/25 02:41:16;;;;;;;;;;;6.20;80.40;;;5.73;55.05;98083.44;5033499;28;20297;-47
2022/03/25 02:43:44;;;;;;;;;;;6.20;80.60;;;5.75;55.97;98093.91;5036051;28;20017;-47
2022/03/25 02:46:10;;;;;;;;;;;6.20;81.20;;;5.69;56.16;98089.59;5037406;28;20066;-47
2022/03/25 02:48:36;;;;;;;;;;;6.30;81.30;;;5.59;57.34;98092.28;5032700;28;19928;-47
2022/03/25 02:51:01;;;;;;;;;;;6.20;82.00;;;5.52;58.52;98087.06;5036979;28;19941;-47
2022/03/25 02:53:28;;;;;;;;;;;6.10;83.00;;;5.44;59.76;98091.47;5036595;28;20543;-47
2022/03/25 02:55:56;;;;;;;;;;;6.00;84.00;;;5.34;61.06;98087.16;5036672;28;19917;-47
2022/03/25 02:58:22;;;;;;;;;;;6.00;85.00;;;5.27;62.09;98090.69;5037587;28;19921;-45
2022/03/25 03:00:48;;;;;;;;;;;5.90;85.70;;;5.18;63.69;98086.38;5036233;28;20205;-48
2022/03/25 03:03:14;;;;;;;;;;;5.80;87.00;;;5.04;64.24;98089.03;5035459;28;19960;-46
2022/03/25 03:05:39;;;;;;;;;;;5.70;87.50;;;5.01;64.86;98089.06;5035416;28;19924;-47
2022/03/25 03:08:06;;;;;;;;;;;5.70;87.90;;;4.96;66.23;98085.59;5034656;28;19925;-47
2022/03/25 03:10:32;;;;;;;;;;;5.60;89.10;;;4.88;66.84;98087.34;5037462;28;19925;-47
2022/03/25 03:12:58;;;;;;;;;;;5.60;89.50;;;4.88;67.89;98088.25;5034370;28;19921;-47
2022/03/25 03:15:25;;;;;;;;;;;5.50;90.10;;;4.85;68.29;98087.38;5035677;28;20322;-47
2022/03/25 03:17:51;;;;;;;;;;;5.50;90.30;;;4.84;68.58;98091.72;5035841;28;20417;-46
2022/03/25 03:20:18;;;;;;;;;;;5.40;90.50;;;4.82;68.57;98093.47;5036775;28;20016;-48
2022/03/25 03:22:44;;;;;;;;;;;5.40;90.40;;;4.80;69.84;98089.13;5038766;28;20492;-47
2022/03/25 03:25:10;;;;;;;;;;;5.40;90.90;;;4.77;69.79;98093.50;5035622;28;19940;-47
2022/03/25 03:27:39;;;;;;;;;;;5.30;91.00;;;4.79;70.02;98088.25;5032110;28;19921;-47
2022/03/25 03:30:07;;;;;;;;;;;5.30;91.00;;;4.78;69.58;98094.34;5034388;28;19916;-46
2022/03/25 03:32:32;;;;;;;;;;;5.30;91.10;;;4.71;67.66;98077.81;5014102;28;19929;-50
2022/03/25 03:34:58;;;;;;;;;;;5.30;90.60;;;4.82;67.92;98077.78;5036242;28;20318;-46
2022/03/25 03:37:24;;;;;;;;;;;5.40;90.70;;;4.80;68.33;98081.28;5032003;28;20321;-47
2022/03/25 03:39:51;;;;;;;;;;;5.40;90.90;;;4.85;66.11;98079.53;5036337;28;19931;-48
2022/03/25 03:42:17;;;;;;;;;;;5.40;90.20;;;4.93;64.47;98085.59;5036727;28;19924;-47
2022/03/25 03:44:43;;;;;;;;;;;5.40;89.50;;;4.96;63.89;98086.44;5037405;28;20353;-47
2022/03/25 03:47:09;;;;;;;;;;;5.50;89.20;;;4.96;63.63;98085.59;5036936;28;19931;-43
2022/03/25 03:49:35;;;;;;;;;;;5.50;89.00;;;4.95;62.78;98086.44;5034959;28;20628;-47
2022/03/25 03:52:01;;;;;;;;;;;5.50;88.00;;;4.99;62.19;98080.34;5037933;28;20278;-46
2022/03/25 03:54:27;;;;;;;;;;;5.50;87.80;;;4.96;62.72;98072.53;5035529;28;20555;-47
2022/03/25 03:56:53;;;;;;;;;;;5.50;88.20;;;4.92;62.76;98074.28;5034420;28;19917;-47
2022/03/25 03:59:19;;;;;;;;;;;5.50;88.10;;;4.90;63.20;98078.66;5036642;28;20452;-46
2022/03/25 04:01:48;;;;;;;;;;;5.50;88.50;;;4.84;64.50;98070.81;5033713;28;19924;-46
2022/03/25 04:04:13;;;;;;;;;;;5.50;89.50;;;4.87;64.58;98078.66;5034891;28;19943;-46
2022/03/25 04:06:39;;;;;;;;;;;5.50;89.60;;;4.85;64.80;98075.16;5034507;28;19925;-47
2022/03/25 04:09:04;;;;;;;;;;;5.40;89.50;;;4.80;65.80;98081.28;5036844;28;19956;-47
2022/03/25 04:11:30;;;;;;;;;;;5.40;90.10;;;4.76;67.80;98076.06;5034196;28;19929;-47
2022/03/25 04:13:56;;;;;;;;;;;5.30;90.80;;;4.70;68.42;98068.25;5036248;28;20582;-46
2022/03/25 04:16:22;;;;;;;;;;;5.30;91.20;;;4.62;69.17;98064.78;5032867;28;20452;-46
2022/03/25 04:18:48;;;;;;;;;;;5.30;91.40;;;4.61;68.28;98068.25;5036795;28;20239;-46
2022/03/25 04:21:13;;;;;;;;;;;5.30;91.10;;;4.63;67.10;98060.41;5031253;28;20381;-44
2022/03/25 04:23:39;;;;;;;;;;;5.30;90.80;;;4.64;66.06;98064.78;5032432;28;19979;-48
2022/03/25 04:26:05;;;;;;;;;;;5.30;90.40;;;4.67;66.45;98065.63;5033166;28;19921;-46
2022/03/25 04:28:31;;;;;;;;;;;5.30;90.50;;;4.64;66.25;98067.41;5036778;28;19929;-46
2022/03/25 04:30:57;;;;;;;;;;;5.30;90.50;;;4.67;66.32;98064.78;5038679;28;19917;-46
2022/03/25 04:33:22;;;;;;;;;;;5.30;90.50;;;4.61;66.34;98062.16;5016210;28;19921;-47
2022/03/25 04:35:48;;;;;;;;;;;5.30;90.60;;;4.62;66.91;98066.53;5024167;28;20489;-47
2022/03/25 04:38:15;;;;;;;;;;;5.30;90.80;;;4.50;67.87;98059.59;5037360;28;20449;-45
2022/03/25 04:40:41;;;;;;;;;;;5.20;91.20;;;4.50;68.83;98076.13;5039875;28;20413;-46
2022/03/25 04:43:06;;;;;;;;;;;5.10;91.50;;;4.49;68.90;98073.53;5038807;28;19926;-47
2022/03/25 04:45:32;;;;;;;;;;;5.00;91.70;;;4.41;70.21;98065.69;5039259;28;19927;-46
2022/03/25 04:47:58;;;;;;;;;;;5.00;92.10;;;4.36;70.98;98064.81;5039930;28;19925;-47
2022/03/25 04:50:24;;;;;;;;;;;5.00;92.50;;;4.37;71.35;98077.88;5033485;28;19925;-46
2022/03/25 04:52:50;;;;;;;;;;;5.00;92.60;;;4.29;71.73;98063.09;5041539;28;20369;-48
2022/03/25 04:55:16;;;;;;;;;;;4.90;92.80;;;4.30;71.18;98072.69;5033922;28;20019;-47
2022/03/25 04:57:42;;;;;;;;;;;4.90;92.80;;;4.31;70.30;98084.88;5029654;28;19917;-47
2022/03/25 05:00:09;;;;;;;;;;;4.80;92.50;;;4.10;71.68;98051.81;5036787;28;19923;-46
2022/03/25 05:02:35;;;;;;;;;;;4.80;93.00;;;4.16;72.81;98068.34;5034801;28;20131;-44
2022/03/25 05:05:02;;;;;;;;;;;4.80;93.40;;;4.09;73.92;98066.63;5037163;28;19918;-47
2022/03/25 05:07:28;;;;;;;;;;;4.70;93.80;;;3.94;74.89;98057.03;5086814;22;19931;-83
2022/03/25 05:09:56;;;;;;;;;;;4.60;94.20;;;3.96;75.11;98068.34;5086683;28;21184;-83
2022/03/25 05:12:22;;;;;;;;;;;4.60;94.40;;;3.91;75.38;98072.72;5086282;28;20296;-83
2022/03/25 05:14:47;;;;;;;;;;;4.50;94.50;;;3.75;75.39;98050.94;5060915;28;19920;-83
2022/03/25 05:17:13;;;;;;;;;;;4.40;94.70;;;3.87;75.49;98080.53;5066672;28;19935;-83
2022/03/25 05:19:39;;;;;;;;;;;4.40;94.90;;;3.54;75.80;98038.75;5053004;28;19982;-83
2022/03/25 05:22:05;;;;;;;;;;;4.40;95.10;;;3.78;76.38;98084.00;5067786;28;19924;-84
2022/03/25 05:24:31;;;;;;;;;;;4.30;95.40;;;3.71;77.27;98071.81;5067656;28;20270;-83
2022/03/25 05:26:59;;;;;;;;;;;4.30;95.80;;;3.46;77.63;98040.47;5052701;28;19965;-83
2022/03/25 05:29:26;;;;;;;;;;;4.30;96.10;;;3.68;78.30;98077.00;5049568;28;19931;-83
2022/03/25 05:31:52;;;;;;;;;;;4.30;96.40;;;3.48;78.86;98046.53;5068112;28;19957;-83
2022/03/25 05:34:17;;;;;;;;;;;4.30;96.80;;;3.67;78.79;98070.06;5065125;28;19931;-83
2022/03/25 05:36:43;;;;;;;;;;;4.30;97.00;;;3.74;78.56;98077.03;5072012;28;19916;-83
2022/03/25 05:39:09;;;;;;;;;;;4.30;97.10;;;3.67;78.08;98064.84;5066357;28;19989;-83
2022/03/25 05:41:35;;;;;;;;;;;4.30;97.00;;;3.79;78.46;98075.31;5053322;28;19952;-84
2022/03/25 05:44:00;;;;;;;;;;;4.40;97.30;;;3.76;77.97;98070.06;5054878;28;19930;-83
2022/03/25 05:46:26;;;;;;;;;;;4.40;97.20;;;3.78;77.96;98070.94;5062414;28;20020;-83
2022/03/25 05:48:52;;;;;;;;;;;4.40;97.40;;;3.76;77.77;98075.28;5065575;28;19939;-83
2022/03/25 05:51:17;;;;;;;;;;;4.50;97.50;;;3.90;78.13;98085.75;5066579;28;19916;-84
2022/03/25 05:53:44;;;;;;;;;;;4.50;97.60;;;3.80;78.03;98074.41;5064013;28;19947;-83
2022/03/25 05:56:10;;;;;;;;;;;4.50;97.70;;;3.95;78.00;98091.84;5050809;28;19931;-83
2022/03/25 05:58:36;;;;;;;;;;;4.50;98.20;;;3.97;78.63;98093.56;5065459;28;20024;-82
2022/03/25 06:01:03;;;;;;;;;;;4.50;98.20;;;3.99;79.48;98094.44;5061465;28;20015;-82
2022/03/25 06:03:30;;;;;;;;;;;4.60;98.60;;;3.97;79.44;98077.91;5081383;28;20366;-83
2022/03/25 06:05:56;;;;;;;;;;;4.60;98.70;;;3.83;79.56;98059.63;5045541;28;19924;-83
2022/03/25 06:08:23;;;;;;;;;;;4.60;98.90;;;4.03;79.95;98081.41;5067976;28;20273;-83
2022/03/25 06:10:50;;;;;;;;;;;4.70;99.20;;;4.07;79.33;98083.13;5066179;28;19924;-82
2022/03/25 06:13:16;;;;;;;;;;;4.70;99.10;;;4.27;79.28;98112.72;5048726;28;19928;-83
2022/03/25 06:15:42;;;;;;;;;;;4.90;99.20;;;4.29;79.19;98107.47;5064689;28;19920;-82
2022/03/25 06:18:07;;;;;;;;;;;4.90;99.10;;;4.30;78.67;98096.19;5063399;28;20092;-83
2022/03/25 06:20:33;;;;;;;;;;;5.00;99.00;;;4.36;79.37;98097.06;5062056;28;19928;-83
2022/03/25 06:22:59;;;;;;;;;;;5.00;99.40;;;4.43;79.27;98094.41;5063886;28;19923;-83
2022/03/25 06:25:24;;;;;;;;;;;5.10;99.40;;;4.52;78.86;98115.28;5059160;28;19920;-84
2022/03/25 06:27:58;;;;;;;;;;;5.10;99.40;;;4.34;78.18;98070.06;5062370;28;19934;-83
2022/03/25 06:30:27;;;;;;;;;;;5.20;99.20;;;4.62;77.50;98109.19;5081194;28;19955;-82
2022/03/25 06:32:53;;;;;;;;;;;5.30;98.90;;;4.68;76.78;98116.16;5078159;28;19954;-83
2022/03/25 06:35:20;;;;;;;;;;;5.30;99.10;;;4.75;76.06;98113.50;5070831;28;20332;-83
2022/03/25 06:37:45;;;;;;;;;;;5.40;98.50;;;4.75;76.43;98105.66;5062273;28;20029;-83
2022/03/25 06:40:11;;;;;;;;;;;5.50;98.40;;;4.84;75.58;98111.75;5069111;28;19924;-83
2022/03/25 06:42:38;;;;;;;;;;;5.50;98.30;;;4.88;76.35;98103.91;5066769;28;19926;-83
2022/03/25 06:45:05;;;;;;;;;;;5.60;98.60;;;5.10;75.57;98128.25;5061977;28;20266;-83
2022/03/25 06:47:31;;;;;;;;;;;5.70;98.40;;;5.16;75.78;98120.34;5067968;28;19912;-83
2022/03/25 06:49:57;;;;;;;;;;;5.80;98.40;;;5.16;75.67;98112.50;5064619;28;19931;-83
2022/03/25 06:52:23;;;;;;;;;;;5.80;98.40;;;5.23;75.14;98118.59;5049190;28;19927;-83
2022/03/25 06:54:49;;;;;;;;;;;5.90;98.30;;;5.21;74.12;98103.81;5059659;28;19939;-83
2022/03/25 06:57:15;;;;;;;;;;;5.90;97.90;;;5.35;73.33;98110.69;5066458;28;20460;-83
2022/03/25 06:59:41;;;;;;;;;;;6.00;97.80;;;5.38;72.88;98107.19;5065385;28;19920;-83
2022/03/25 07:02:09;;;;;;;;;;;6.20;97.80;;;5.63;71.89;98136.72;5066685;28;19926;-83
2022/03/25 07:04:35;;;;;;;;;;;6.20;97.10;;;5.73;70.82;98137.53;5052822;28;20223;-83
2022/03/25 07:07:03;;;;;;;;;;;6.30;96.70;;;5.86;69.64;98154.91;5071401;28;19920;-83
2022/03/25 07:09:29;;;;;;;;;;;6.40;96.30;;;5.67;69.37;98114.00;5065271;28;19924;-83
2022/03/25 07:11:56;;;;;;;;;;;6.50;96.10;;;5.73;69.29;98107.00;5068360;28;19920;-83
2022/03/25 07:14:21;;;;;;;;;;;6.50;96.00;;;6.05;68.31;98149.59;5082726;28;19916;-83
2022/03/25 07:16:47;;;;;;;;;;;6.60;95.70;;;5.66;68.30;98083.50;5066576;28;20289;-83
2022/03/25 07:19:13;;;;;;;;;;;6.70;95.70;;;6.18;68.93;98151.25;5081104;28;19924;-83
2022/03/25 07:21:38;;;;;;;;;;;6.70;95.90;;;6.24;68.39;98151.19;5060207;28;19973;-83
2022/03/25 07:24:04;;;;;;;;;;;6.80;95.70;;;6.27;67.34;98161.66;5043060;28;19977;-83
2022/03/25 07:26:30;;;;;;;;;;;6.90;95.30;;;6.44;66.24;98163.25;5056647;28;20286;-83
2022/03/25 07:28:56;;;;;;;;;;;7.00;94.90;;;6.39;65.64;98136.22;5058650;28;19921;-83
2022/03/25 07:31:21;;;;;;;;;;;7.10;94.80;;;6.55;65.04;98157.94;5062138;28;19964;-83
2022/03/25 07:33:47;;;;;;;;;;;7.20;94.50;;;6.37;63.75;98125.78;5057428;28;19917;-83
2022/03/25 07:36:12;;;;;;;;;;;7.20;93.90;;;6.69;63.69;98166.53;5060181;28;19916;-83
2022/03/25 07:38:45;;;;;;;;;;;7.30;93.70;;;6.61;63.99;98136.91;5070022;28;19920;-90
2022/03/25 07:41:11;;;;;;;;;;;7.30;94.00;;;6.56;63.46;98118.59;5059412;28;19916;-83
2022/03/25 07:43:38;;;;;;;;;;;7.40;93.80;;;6.75;62.81;98134.16;5078669;28;19990;-83
2022/03/25 07:46:03;;;;;;;;;;;7.50;93.50;;;6.97;62.94;98150.56;5078808;28;19917;-81
2022/03/25 07:48:29;;;;;;;;;;;7.60;93.50;;;6.94;63.19;98127.84;5064766;28;19931;-82
2022/03/25 07:50:54;;;;;;;;;;;7.70;93.60;;;7.11;59.76;98147.78;5064795;28;20347;-82
2022/03/25 07:53:23;;;;;;;;;;;7.80;92.40;;;7.22;57.04;98151.16;5061558;28;19920;-82
2022/03/25 07:55:50;;;;;;;;;;;7.90;91.10;;;7.20;57.13;98131.94;5080878;28;19916;-82
2022/03/25 07:58:19;;;;;;;;;;;8.00;91.00;;;7.73;56.88;98182.00;5080356;28;19966;-82
2022/03/25 08:00:48;;;;;;;;;;;8.20;91.10;;;7.83;55.82;98184.50;5081700;28;19916;-81
2022/03/25 08:03:16;;;;;;;;;;;8.30;90.50;;;7.96;54.98;98189.59;5063117;28;20018;-82
2022/03/25 08:05:47;;;;;;;;;;;8.50;90.10;;;8.15;52.82;98196.31;5046854;28;19922;-82
2022/03/25 08:08:13;;;;;;;;;;;8.60;88.10;;;8.15;54.36;98166.56;5069143;28;19924;-82
2022/03/25 08:10:39;;;;;;;;;;;8.70;89.50;;;8.34;52.95;98190.78;5065580;28;19916;-81
2022/03/25 08:13:05;;;;;;;;;;;8.80;88.00;;;8.26;52.31;98184.78;5065291;28;19981;-82
2022/03/25 08:15:32;;;;;;;;;;;8.90;86.50;;;8.45;52.83;98193.28;5061628;28;19973;-82
2022/03/25 08:18:00;;;;;;;;;;;8.90;88.00;;;8.50;53.21;98184.41;5079178;28;19916;-82
2022/03/25 08:20:35;;;;;;;;;;;9.00;87.40;;;8.46;52.63;98174.84;5063106;28;20031;-82
2022/03/25 08:23:05;;;;;;;;;;;9.10;87.20;;;8.62;51.80;98185.13;5062270;28;20003;-81
2022/03/25 08:28:16;;;;;;;;;;;9.30;84.10;;;9.01;48.58;98191.47;5067509;28;19923;-82
2022/03/25 08:30:43;;;;;;;;;;;9.40;82.20;;;9.15;48.48;98196.47;5066446;28;19989;-81
2022/03/25 08:33:09;;;;;;;;;;;9.50;81.90;;;9.22;49.13;98190.19;5048222;28;20394;-81
2022/03/25 08:35:36;;;;;;;;;;;9.70;82.30;;;9.48;48.75;98199.38;5046913;28;19916;-82
2022/03/25 08:38:02;;;;;;;;;;;9.90;82.30;;;9.46;47.71;98180.09;5059714;28;20042;-82
2022/03/25 08:40:29;;;;;;;;;;;10.00;80.70;;;9.66;48.08;98200.75;5046385;28;19943;-81
2022/03/25 08:42:55;;;;;;;;;;;10.10;80.90;;;9.75;47.87;98176.88;5049994;28;20024;-81
2022/03/25 08:45:22;;;;;;;;;;;10.20;80.50;;;10.06;47.07;98203.41;5065921;28;19924;-81
2022/03/25 08:47:51;;;;;;;;;;;10.40;79.40;;;10.08;46.40;98177.88;5059020;28;19971;-81
2022/03/25 08:50:17;;;;;;;;;;;10.60;78.80;;;10.23;46.51;98184.59;5066349;28;19924;-80
2022/03/25 08:52:45;;;;;;;;;;;10.70;78.50;;;10.39;46.89;98186.88;5076255;28;19928;-82
2022/03/25 08:55:11;;;;;;;;;;;10.80;79.10;;;10.31;47.82;98174.75;5063768;28;22387;-82
2022/03/25 08:57:38;;;;;;;;;;;10.80;80.10;;;10.27;47.72;98159.03;5066112;28;19917;-82
2022/03/25 09:00:06;;;;;;;;;;;10.80;79.90;;;10.43;48.90;98184.16;5068277;28;20434;-82
2022/03/25 09:02:32;;;;;;;;;;;10.90;81.00;;;10.40;48.73;98171.03;5063497;28;19928;-81
2022/03/25 09:04:58;;;;;;;;;;;10.90;81.20;;;10.53;47.92;98178.66;5067261;28;19931;-81
2022/03/25 09:07:23;;;;;;;;;;;10.90;80.50;;;10.61;47.63;98190.75;5060558;28;19942;-82
2022/03/25 09:09:49;;;;;;;;;;;11.00;80.20;;;10.31;47.23;98121.16;5059772;28;20017;-82
2022/03/25 09:12:15;;;;;;;;;;;11.10;79.80;;;10.68;47.06;98189.69;5085889;28;19947;-82
2022/03/25 09:14:40;;;;;;;;;;;11.10;78.90;;;10.74;46.45;98193.09;5058071;28;20314;-81
2022/03/25 09:17:06;;;;;;;;;;;11.20;78.60;;;10.82;45.98;98183.19;5066950;28;20022;-81
2022/03/25 09:19:32;;;;;;;;;;;11.30;77.60;;;11.03;45.24;98194.97;5071367;28;20241;-81
2022/03/25 09:21:57;;;;;;;;;;;11.40;76.30;;;11.21;44.35;98205.03;5085108;28;19917;-81
2022/03/25 09:24:23;;;;;;;;;;;11.60;75.20;;;11.14;44.09;98169.16;5051429;28;19925;-82
2022/03/25 09:26:49;;;;;;;;;;;11.60;74.70;;;11.26;43.06;98179.38;5085954;28;19924;-81
2022/03/25 09:29:15;;;;;;;;;;;11.70;73.00;;;11.25;42.39;98167.09;5064721;28;20016;-81
2022/03/25 09:31:42;;;;;;;;;;;11.80;73.10;;;11.37;41.81;98179.09;5047475;28;20226;-82
2022/03/25 09:36:53;;;;;;;;;;;11.90;71.00;;;11.64;42.43;98188.00;5068935;28;19939;-82
2022/03/25 09:39:19;;;;;;;;;;;12.10;71.20;;;11.63;40.72;98161.66;5065556;28;20366;-81
2022/03/25 09:41:46;;;;;;;;;;;12.20;69.20;;;11.80;40.51;98196.38;5065488;28;19916;-81
2022/03/25 09:44:14;;;;;;;;;;;12.20;68.70;;;11.86;41.84;98176.81;5071787;28;19927;-81
2022/03/25 09:46:42;;;;;;;;;;;12.30;70.40;;;11.88;41.11;98167.09;5070024;28;20326;-90
2022/03/25 09:49:09;;;;;;;;;;;12.40;69.80;;;11.94;41.36;98168.72;5066341;28;20519;-82
2022/03/25 09:51:36;;;;;;;;;;;12.40;69.70;;;12.18;41.58;98196.16;5063841;28;19931;-82
2022/03/25 09:54:02;;;;;;;;;;;12.50;70.00;;;12.27;40.95;98203.81;5052571;28;19916;-81
2022/03/25 09:56:27;;;;;;;;;;;12.60;69.10;;;12.36;41.02;98198.25;5085623;28;20385;-81
2022/03/25 09:58:53;;;;;;;;;;;12.70;69.20;;;12.52;40.11;98197.75;5063489;28;20084;-81
2022/03/25 10:01:20;;;;;;;;;;;12.80;68.00;;;12.42;40.10;98189.25;5058851;28;19920;-82
2022/03/25 10:03:45;;;;;;;;;;;12.90;67.30;;;12.55;40.26;98173.84;5052674;28;19977;-82
2022/03/25 10:06:12;;;;;;;;;;;13.00;67.90;;;12.78;39.75;98200.41;5067084;28;19916;-80
2022/03/25 10:08:42;;;;;;;;;;;13.10;67.40;;;12.76;39.34;98199.63;5066717;28;19924;-81
2022/03/25 10:11:24;;;;;;;;;;;13.10;66.10;;;12.89;38.66;98193.91;5069823;28;19920;-82
2022/03/25 10:14:14;;;;;;;;;;;13.20;65.30;;;12.83;38.67;98188.81;5054303;28;19920;-82
2022/03/25 10:16:45;;;;;;;;;;;13.20;65.70;;;12.81;37.90;98159.75;5046478;28;20011;-82
2022/03/25 10:19:11;;;;;;;;;;;13.30;64.50;;;12.87;37.91;98175.44;5076470;28;20351;-82
2022/03/25 10:21:50;;;;;;;;;;;13.30;63.60;;;13.04;36.72;98181.94;5062102;28;20373;-82
2022/03/25 10:24:18;;;;;;;;;;;13.40;62.60;;;12.98;37.62;98175.06;5067314;28;20411;-82
2022/03/25 10:26:45;;;;;;;;;;;13.40;62.80;;;13.04;38.35;98173.97;5069437;28;19916;-82
2022/03/25 10:29:22;;;;;;;;;;;13.40;64.00;;;13.17;39.69;98183.22;5071111;28;19920;-81
2022/03/25 10:32:08;;;;;;;;;;;13.50;66.20;;;13.38;39.46;98189.59;5075453;28;19932;-82
2022/03/25 10:34:38;;;;;;;;;;;13.60;66.20;;;13.51;37.70;98192.66;5070189;28;19924;-82
2022/03/25 10:37:06;;;;;;;;;;;13.80;62.60;;;13.61;37.66;98190.56;5056064;28;19948;-82
2022/03/25 10:39:33;;;;;;;;;;;13.90;63.30;;;13.61;37.88;98185.25;5065046;28;19950;-82
2022/03/25 10:42:00;;;;;;;;;;;13.90;63.40;;;13.42;36.46;98156.75;5070553;28;19951;-82
2022/03/25 10:44:46;;;;;;;;;;;13.90;62.50;;;13.82;34.29;98184.47;5071179;28;19916;-82
2022/03/25 10:47:15;;;;;;;;;;;14.00;58.80;;;13.80;32.98;98193.38;5051424;28;19925;-82
2022/03/25 10:49:43;;;;;;;;;;;14.10;57.00;;;13.77;33.57;98167.00;5086795;28;20301;-82
2022/03/25 10:52:30;;;;;;;;;;;14.10;56.70;;;14.02;32.10;98189.00;5066152;28;20193;-81
2022/03/25 10:55:23;;;;;;;;;;;14.30;55.30;;;13.96;33.23;98183.91;5073062;28;19924;-81
2022/03/25 10:57:53;;;;;;;;;;;14.30;56.20;;;14.10;33.73;98180.75;5070947;28;19916;-82
2022/03/25 11:00:19;;;;;;;;;;;14.30;57.00;;;14.12;33.31;98173.59;5080897;28;19954;-82
2022/03/25 11:02:45;;;;;;;;;;;14.40;56.40;;;14.23;31.50;98163.44;5071070;28;20425;-82
2022/03/25 11:05:12;;;;;;;;;;;14.50;54.20;;;14.04;31.52;98155.31;5053856;28;20305;-85
2022/03/25 11:07:40;;;;;;;;;;;14.60;54.00;;;14.20;32.79;98179.47;5068296;28;20000;-84
2022/03/25 11:10:06;;;;;;;;;;;14.50;54.70;;;14.02;33.11;98157.16;5069486;28;19923;-85
2022/03/25 11:12:32;;;;;;;;;;;14.50;55.50;;;13.95;33.23;98145.06;5082976;28;19927;-85
2022/03/25 11:14:59;;;;;;;;;;;14.40;55.30;;;14.05;33.50;98161.47;5085351;28;19904;-85
2022/03/25 11:17:31;;;;;;;;;;;14.40;56.10;;;14.07;33.91;98151.72;5077166;28;19976;-86
2022/03/25 11:19:59;;;;;;;;;;;14.50;56.80;;;14.21;33.28;98172.34;5062240;28;19916;-85
2022/03/25 11:22:25;;;;;;;;;;;14.50;55.70;;;14.23;33.21;98165.19;5064501;28;19931;-84
2022/03/25 11:24:53;;;;;;;;;;;14.50;55.50;;;14.33;32.44;98167.44;5064594;28;19924;-85
2022/03/25 11:27:27;;;;;;;;;;;14.60;55.30;;;14.24;31.59;98146.56;5071617;28;20006;-84
2022/03/25 11:29:55;;;;;;;;;;;14.60;53.40;;;14.27;32.14;98143.81;5072580;28;19924;-84
2022/03/25 11:32:20;;;;;;;;;;;14.70;54.00;;;14.62;31.27;98160.09;5063549;28;19924;-84